Cattitude — 2EWK3 — position and weather

sailwx.info

Track history (hours):
 
Tides and Currents Weather Stations Pressure Air Temp Water Temp Dewpoint Dewpoint Depression Visibility Wind Speed Wind Dir Waves Ship Positions

Cattitude

Last reported at 2018-Mar-29 18:39 UTC. Time now 2018-May-23 18:43 UTC.
Position N 37°45' W 000°45'.
Warning: this ship's position is 55 days out of date.

Type: Sailing vessel. MMSI: 235088709.

Date/timePositionNaut miles runAvg speedWind from/ knotsBaromVisibWave heightAir tempDewpointWater temp
2018-Mar-29 18:39N 37°45' W 000°45'0 0.0
2018-Mar-29 18:27N 37°45' W 000°45'0 0.0
2018-Mar-29 17:57N 37°45' W 000°45'0 0.0
2018-Mar-29 17:27N 37°45' W 000°45'0 0.8
2018-Mar-29 16:59N 37°45' W 000°45'0 0.0
2018-Mar-29 16:23N 37°45' W 000°45'1 3.3
2018-Mar-29 16:00N 37°44' W 000°44'0 0.9
2018-Mar-29 15:30N 37°44' W 000°43'3 6.3
2018-Mar-29 15:01N 37°46' W 000°41'4 7.6
2018-Mar-29 14:31N 37°49' W 000°38'4 7.4
2018-Mar-29 14:00N 37°53' W 000°36'4 7.5
2018-Mar-29 13:30N 37°56' W 000°34'4 7.5
2018-Mar-29 13:01N 37°59' W 000°32'213 4.8
2018-Mar-27 16:16N 41°03' E 001°48'11 9.7
2018-Mar-27 15:08N 41°10' E 001°59'110.2
2018-Mar-27 14:59N 41°11' E 002°01'510.2
2018-Mar-27 14:30N 41°14' E 002°06'510.2
2018-Mar-27 14:00N 41°18' E 002°11'  
Track history (hours):
 
Tides and Currents Weather Stations Pressure Air Temp Water Temp Dewpoint Dewpoint Depression Visibility Wind Speed Wind Dir Waves Ship Positions

Cattitude

Last reported at 2018-Mar-29 18:39 UTC. Time now 2018-May-23 18:43 UTC.
Position N 37°45' W 000°45'.
Warning: this ship's position is 55 days out of date.

Type: Sailing vessel. MMSI: 235088709.

Date/timePositionNaut miles runAvg speedWind from/ knotsBaromVisibWave heightAir tempDewpointWater temp
2018-Mar-29 18:39N 37°45' W 000°45'0 0.0
2018-Mar-29 18:27N 37°45' W 000°45'0 0.0
2018-Mar-29 17:57N 37°45' W 000°45'0 0.0
2018-Mar-29 17:27N 37°45' W 000°45'0 0.8
2018-Mar-29 16:59N 37°45' W 000°45'0 0.0
2018-Mar-29 16:23N 37°45' W 000°45'1 3.3
2018-Mar-29 16:00N 37°44' W 000°44'0 0.9
2018-Mar-29 15:30N 37°44' W 000°43'3 6.3
2018-Mar-29 15:01N 37°46' W 000°41'4 7.6
2018-Mar-29 14:31N 37°49' W 000°38'4 7.4
2018-Mar-29 14:00N 37°53' W 000°36'4 7.5
2018-Mar-29 13:30N 37°56' W 000°34'4 7.5
2018-Mar-29 13:01N 37°59' W 000°32'213 4.8
2018-Mar-27 16:16N 41°03' E 001°48'11 9.7
2018-Mar-27 15:08N 41°10' E 001°59'110.2
2018-Mar-27 14:59N 41°11' E 002°01'510.2
2018-Mar-27 14:30N 41°14' E 002°06'510.2
2018-Mar-27 14:00N 41°18' E 002°11'  

Dump ship's entire track history